Ashby, Minnesota
Current Conditions -  °F | °C
As of 7:16 AM on Thursday 30 Oct 2014 (Local Time) from KY63 Reporting Station
Light Rain Light Rain  
Wind Chill:   Ceiling: 4100
Heat Index:   Visibility: 10mi
Dew Point:   Wind: 0mph
Humidity: 97%   Direction: NA
Pressure: 30.03"   Gusts: NA
Location:  46.09°N, 95.82°W
Report Text: KY63 301216Z AUTO 00000KT 10SM -RA BKN041 OVC060 03/03 A3003 RMK AO2 T00300025
Loading
Personal Weather Stations






























Interactive Weather Map
Tropical Storm Tracking
New forecast layout! Learn more

10-Day Weather Forecast

Advertisements
Track Severe Weather on mobile